This demonstration page uses our WeatherBlox Daily Observations layout. Learn more.

38.88101, -77.10428

Hourly Observations for March 7, 2016

Temp ( °F °C ) Dew Point ( °F °C ) Humidity (%) Winds ( mph kmh ) Pressure ( in mb ) Visibility ( mi km ) Precip ( " mm )
12:52 am 00:52 Mostly Cloudy 38 3.3 33 0.6 83 83 S 5 7 30.33 1027 10 16.09344 0 0
1:52 am 01:52 Mostly Cloudy 38 3.3 34 1.1 86 86 S 7 11 30.33 1027 10 16.09344 0 0
2:52 am 02:52 Mostly Cloudy 38 3.3 34 1.1 86 86 S 10 17 30.3 1026 9 14.484096 0 0
3:52 am 03:52 Mostly Cloudy 38 3.3 34 1.1 86 86 S 13 20 30.27 1025 10 16.09344 0 0
4:52 am 04:52 Partly Cloudy 37 2.8 33 0.6 86 86 SSW 8 13 30.27 1025 10 16.09344 0 0
5:52 am 05:52 Mostly Clear 36 2.2 32 0 86 86 S 7 11 30.3 1026 9 14.484096 0 0
6:52 am 06:52 Partly Cloudy 38 3.3 34 1.1 86 86 S 10 17 30.3 1026 7 11.265408 0 0
7:52 am 07:52 Mostly Sunny 40 4.4 34 1.1 79 79 S 10 17 30.3 1026 8 12.874752 0 0
8:52 am 08:52 Mostly Sunny 44 6.7 36 2.2 73 73 SSW 18 30 30.3 1026 10 16.09344 0 0
9:52 am 09:52 Mostly Sunny 49 9.4 37 2.8 64 64 SSW 15 24 30.27 1025 10 16.09344 0 0
10:52 am 10:52 Mostly Sunny 51 10.6 37 2.8 59 59 SSW 13 20 30.27 1025 10 16.09344 0 0
11:52 am 11:52 Partly Cloudy 53 11.7 40 4.4 61 61 S 14 22 30.24 1024 10 16.09344 0 0
12:52 pm 12:52 Mostly Cloudy 57 13.9 40 4.4 53 53 S 15 24 30.21 1023 10 16.09344 0 0
1:52 pm 13:52 Mostly Cloudy 62 16.7 38 3.3 41 41 S 12 19 30.15 1021 10 16.09344 0 0
2:52 pm 14:52 Mostly Cloudy 65 18.3 37 2.8 36 36 SSW 15 24 30.12 1020 10 16.09344 0 0
3:52 pm 15:52 Mostly Cloudy 64 17.8 37 2.8 37 37 SSW 18 30 30.12 1020 10 16.09344 0 0
4:52 pm 16:52 Mostly Cloudy 65 18.3 36 2.2 34 34 SSW 13 20 30.09 1019 10 16.09344 0 0
5:52 pm 17:52 Mostly Cloudy 63 17.2 35 1.7 35 35 SW 13 20 30.12 1020 10 16.09344 0 0
6:52 pm 18:52 Mostly Cloudy 60 15.6 35 1.7 39 39 SSW 10 17 30.12 1020 10 16.09344 0 0
7:52 pm 19:52 Mostly Cloudy 54 12.2 40 4.4 59 59 SSW 6 9 30.12 1020 10 16.09344 0 0
8:52 pm 20:52 Mostly Cloudy 54 12.2 40 4.4 59 59 S 8 13 30.12 1020 10 16.09344 0 0
9:52 pm 21:52 Clear 53 11.7 40 4.4 61 61 S 7 11 30.12 1020 10 16.09344 0 0
10:52 pm 22:52 Mostly Cloudy 51 10.6 40 4.4 66 66 S 7 11 30.12 1020 10 16.09344 0 0
11:52 pm 23:52 Mostly Cloudy 53 11.7 40 4.4 61 61 SSW 3 6 30.12 1020 10 16.09344 0 0

Powered by AerisWeather